Harrisburg, New York
Current Conditions -  °F | °C
As of 3:51 PM on Thursday 27 Nov 2014 (Local Time) from KGTB Reporting Station
Light Snow Light Snow  
Wind Chill: -3°   Ceiling: 3500
Heat Index: -3°   Visibility: 3mi
Dew Point: -5°   Wind: 1mph
Humidity: 86%   Direction: 90°E
Pressure: 30.02"   Gusts: NA
Location:  43.7565°N, 75.5938°W
Report Text: KGTB 272051Z AUTO 09001KT 3SM -SN BR OVC035 M03/M05 A3002 RMK AO2 SNE2027B2031 CIG 023 RWY03
Loading
Personal Weather Stations






























Interactive Weather Map New forecast layout! Learn more

10-Day Weather Forecast

Advertisements
Track Severe Weather on mobile